sensor_id;sensor_type;location;lat;lon;timestamp;pressure;altitude;pressure_sealevel;temperature;humidity
29935;BME280;19905;53.370;-6.314;2023-07-22T00:01:15;100631.00;;;13.15;100.00
29935;BME280;19905;53.370;-6.314;2023-07-22T00:03:44;100620.22;;;13.07;100.00
29935;BME280;19905;53.370;-6.314;2023-07-22T00:06:14;100622.06;;;13.07;100.00
29935;BME280;19905;53.370;-6.314;2023-07-22T00:08:43;100622.63;;;13.10;100.00
29935;BME280;19905;53.370;-6.314;2023-07-22T00:11:11;100606.81;;;13.09;100.00
29935;BME280;19905;53.370;-6.314;2023-07-22T00:13:40;100598.19;;;13.07;100.00
29935;BME280;19905;53.370;-6.314;2023-07-22T00:16:11;100593.88;;;13.06;100.00
29935;BME280;19905;53.370;-6.314;2023-07-22T00:18:39;100592.72;;;13.08;100.00
29935;BME280;19905;53.370;-6.314;2023-07-22T00:21:08;100586.84;;;13.05;100.00
29935;BME280;19905;53.370;-6.314;2023-07-22T00:23:38;100581.97;;;13.10;100.00
29935;BME280;19905;53.370;-6.314;2023-07-22T00:26:06;100582.13;;;13.08;100.00
29935;BME280;19905;53.370;-6.314;2023-07-22T00:28:36;100575.97;;;12.98;100.00
29935;BME280;19905;53.370;-6.314;2023-07-22T00:31:04;100575.81;;;13.00;100.00
29935;BME280;19905;53.370;-6.314;2023-07-22T00:33:33;100574.72;;;13.02;100.00
29935;BME280;19905;53.370;-6.314;2023-07-22T00:36:02;100570.94;;;13.05;100.00
29935;BME280;19905;53.370;-6.314;2023-07-22T00:38:31;100561.91;;;13.07;100.00
29935;BME280;19905;53.370;-6.314;2023-07-22T00:41:01;100551.72;;;13.12;100.00
29935;BME280;19905;53.370;-6.314;2023-07-22T00:43:31;100558.84;;;13.12;100.00
29935;BME280;19905;53.370;-6.314;2023-07-22T00:46:00;100549.75;;;13.14;100.00
29935;BME280;19905;53.370;-6.314;2023-07-22T00:48:28;100545.56;;;13.12;100.00
29935;BME280;19905;53.370;-6.314;2023-07-22T00:50:57;100545.72;;;13.10;100.00
29935;BME280;19905;53.370;-6.314;2023-07-22T00:53:26;100538.72;;;13.19;100.00
29935;BME280;19905;53.370;-6.314;2023-07-22T00:55:55;100537.47;;;13.13;100.00
29935;BME280;19905;53.370;-6.314;2023-07-22T00:58:25;100537.19;;;13.16;100.00
29935;BME280;19905;53.370;-6.314;2023-07-22T01:00:53;100530.06;;;13.17;100.00
29935;BME280;19905;53.370;-6.314;2023-07-22T01:03:22;100520.88;;;13.21;100.00
29935;BME280;19905;53.370;-6.314;2023-07-22T01:05:53;100518.09;;;13.22;100.00
29935;BME280;19905;53.370;-6.314;2023-07-22T01:08:22;100512.19;;;13.19;100.00
29935;BME280;19905;53.370;-6.314;2023-07-22T01:10:50;100503.41;;;13.18;100.00
29935;BME280;19905;53.370;-6.314;2023-07-22T01:13:19;100498.81;;;13.20;100.00
29935;BME280;19905;53.370;-6.314;2023-07-22T01:15:49;100492.69;;;13.20;100.00
29935;BME280;19905;53.370;-6.314;2023-07-22T01:18:18;100481.81;;;13.23;100.00
29935;BME280;19905;53.370;-6.314;2023-07-22T01:20:48;100474.56;;;13.25;100.00
29935;BME280;19905;53.370;-6.314;2023-07-22T01:23:18;100474.13;;;13.30;100.00
29935;BME280;19905;53.370;-6.314;2023-07-22T01:25:47;100468.13;;;13.28;100.00
29935;BME280;19905;53.370;-6.314;2023-07-22T01:28:16;100470.34;;;13.32;100.00
29935;BME280;19905;53.370;-6.314;2023-07-22T01:30:44;100455.28;;;13.33;100.00
29935;BME280;19905;53.370;-6.314;2023-07-22T01:33:13;100452.34;;;13.36;100.00
29935;BME280;19905;53.370;-6.314;2023-07-22T01:35:41;100449.00;;;13.34;100.00
29935;BME280;19905;53.370;-6.314;2023-07-22T01:38:10;100443.56;;;13.35;100.00
29935;BME280;19905;53.370;-6.314;2023-07-22T01:40:40;100437.97;;;13.38;100.00
29935;BME280;19905;53.370;-6.314;2023-07-22T01:43:08;100430.69;;;13.40;100.00
29935;BME280;19905;53.370;-6.314;2023-07-22T01:45:37;100428.47;;;13.36;100.00
29935;BME280;19905;53.370;-6.314;2023-07-22T01:48:06;100429.31;;;13.36;100.00
29935;BME280;19905;53.370;-6.314;2023-07-22T01:50:35;100420.91;;;13.41;100.00
29935;BME280;19905;53.370;-6.314;2023-07-22T01:53:03;100423.88;;;13.38;100.00
29935;BME280;19905;53.370;-6.314;2023-07-22T01:55:32;100415.91;;;13.38;100.00
29935;BME280;19905;53.370;-6.314;2023-07-22T01:58:03;100413.25;;;13.38;100.00
29935;BME280;19905;53.370;-6.314;2023-07-22T02:00:32;100402.78;;;13.36;100.00
29935;BME280;19905;53.370;-6.314;2023-07-22T02:03:00;100411.03;;;13.33;100.00
29935;BME280;19905;53.370;-6.314;2023-07-22T02:05:29;100401.28;;;13.24;100.00
29935;BME280;19905;53.370;-6.314;2023-07-22T02:46:01;100373.75;;;12.86;100.00
29935;BME280;19905;53.370;-6.314;2023-07-22T02:48:31;100367.78;;;12.84;100.00
29935;BME280;19905;53.370;-6.314;2023-07-22T02:51:03;100370.56;;;12.83;100.00
29935;BME280;19905;53.370;-6.314;2023-07-22T02:53:32;100370.84;;;12.80;100.00
29935;BME280;19905;53.370;-6.314;2023-07-22T02:56:01;100366.09;;;12.73;100.00
29935;BME280;19905;53.370;-6.314;2023-07-22T02:58:29;100367.22;;;12.71;100.00
29935;BME280;19905;53.370;-6.314;2023-07-22T03:00:58;100365.00;;;12.66;100.00
29935;BME280;19905;53.370;-6.314;2023-07-22T03:03:28;100362.19;;;12.68;100.00
29935;BME280;19905;53.370;-6.314;2023-07-22T03:06:00;100369.72;;;12.63;100.00
29935;BME280;19905;53.370;-6.314;2023-07-22T03:08:28;100365.41;;;12.62;100.00
29935;BME280;19905;53.370;-6.314;2023-07-22T03:10:57;100366.38;;;12.61;100.00
29935;BME280;19905;53.370;-6.314;2023-07-22T03:13:26;100367.34;;;12.60;100.00
29935;BME280;19905;53.370;-6.314;2023-07-22T03:15:58;100363.84;;;12.59;100.00
29935;BME280;19905;53.370;-6.314;2023-07-22T03:18:28;100364.41;;;12.63;100.00
29935;BME280;19905;53.370;-6.314;2023-07-22T03:20:57;100369.03;;;12.61;100.00
29935;BME280;19905;53.370;-6.314;2023-07-22T03:23:25;100370.97;;;12.59;100.00
29935;BME280;19905;53.370;-6.314;2023-07-22T03:25:54;100369.03;;;12.61;100.00
29935;BME280;19905;53.370;-6.314;2023-07-22T03:28:24;100364.16;;;12.66;100.00
29935;BME280;19905;53.370;-6.314;2023-07-22T03:30:53;100364.28;;;12.64;100.00
29935;BME280;19905;53.370;-6.314;2023-07-22T03:33:22;100365.13;;;12.65;100.00
29935;BME280;19905;53.370;-6.314;2023-07-22T03:35:52;100364.28;;;12.64;100.00
29935;BME280;19905;53.370;-6.314;2023-07-22T03:38:21;100364.84;;;12.68;100.00
29935;BME280;19905;53.370;-6.314;2023-07-22T03:40:49;100359.13;;;12.63;100.00
29935;BME280;19905;53.370;-6.314;2023-07-22T03:43:20;100361.63;;;12.64;100.00
29935;BME280;19905;53.370;-6.314;2023-07-22T03:45:48;100361.63;;;12.64;100.00
29935;BME280;19905;53.370;-6.314;2023-07-22T03:48:17;100356.47;;;12.63;100.00
29935;BME280;19905;53.370;-6.314;2023-07-22T03:50:46;100349.25;;;12.65;100.00
29935;BME280;19905;53.370;-6.314;2023-07-22T03:53:18;100350.75;;;12.67;100.00
29935;BME280;19905;53.370;-6.314;2023-07-22T03:55:46;100347.13;;;12.68;100.00
29935;BME280;19905;53.370;-6.314;2023-07-22T03:58:15;100343.63;;;12.68;100.00
29935;BME280;19905;53.370;-6.314;2023-07-22T04:00:48;100346.16;;;12.69;100.00
29935;BME280;19905;53.370;-6.314;2023-07-22T04:03:17;100352.56;;;12.67;100.00
29935;BME280;19905;53.370;-6.314;2023-07-22T04:05:53;100344.19;;;12.71;100.00
29935;BME280;19905;53.370;-6.314;2023-07-22T04:08:23;100346.84;;;12.71;100.00
29935;BME280;19905;53.370;-6.314;2023-07-22T04:10:52;100343.38;;;12.71;100.00
29935;BME280;19905;53.370;-6.314;2023-07-22T04:13:22;100333.59;;;12.71;100.00
29935;BME280;19905;53.370;-6.314;2023-07-22T04:15:51;100343.94;;;12.75;100.00
29935;BME280;19905;53.370;-6.314;2023-07-22T04:18:20;100328.03;;;12.75;100.00
29935;BME280;19905;53.370;-6.314;2023-07-22T04:20:55;100328.56;;;12.78;100.00
29935;BME280;19905;53.370;-6.314;2023-07-22T04:23:26;100325.78;;;12.80;100.00
29935;BME280;19905;53.370;-6.314;2023-07-22T04:25:54;100313.38;;;12.80;100.00
29935;BME280;19905;53.370;-6.314;2023-07-22T04:28:24;100315.88;;;12.82;100.00
29935;BME280;19905;53.370;-6.314;2023-07-22T04:30:57;100312.13;;;12.84;100.00
29935;BME280;19905;53.370;-6.314;2023-07-22T04:33:26;100313.09;;;12.83;100.00
29935;BME280;19905;53.370;-6.314;2023-07-22T04:35:57;100308.47;;;12.85;100.00
29935;BME280;19905;53.370;-6.314;2023-07-22T04:38:28;100301.50;;;12.84;100.00
29935;BME280;19905;53.370;-6.314;2023-07-22T04:40:56;100296.34;;;12.83;100.00
29935;BME280;19905;53.370;-6.314;2023-07-22T04:43:26;100295.22;;;12.85;100.00
29935;BME280;19905;53.370;-6.314;2023-07-22T04:45:54;100293.13;;;12.89;100.00
29935;BME280;19905;53.370;-6.314;2023-07-22T04:48:23;100295.91;;;12.87;100.00
29935;BME280;19905;53.370;-6.314;2023-07-22T04:50:51;100284.19;;;12.90;100.00
29935;BME280;19905;53.370;-6.314;2023-07-22T04:53:21;100288.38;;;12.92;100.00
29935;BME280;19905;53.370;-6.314;2023-07-22T04:55:51;100289.50;;;12.90;100.00
29935;BME280;19905;53.370;-6.314;2023-07-22T04:58:19;100283.09;;;12.92;100.00
29935;BME280;19905;53.370;-6.314;2023-07-22T05:00:48;100278.63;;;12.93;100.00
29935;BME280;19905;53.370;-6.314;2023-07-22T05:03:17;100276.94;;;12.92;100.00
29935;BME280;19905;53.370;-6.314;2023-07-22T05:05:46;100274.97;;;12.94;100.00
29935;BME280;19905;53.370;-6.314;2023-07-22T05:08:14;100268.69;;;12.95;100.00
29935;BME280;19905;53.370;-6.314;2023-07-22T05:10:43;100268.53;;;12.96;100.00
29935;BME280;19905;53.370;-6.314;2023-07-22T05:13:13;100268.41;;;12.98;100.00
29935;BME280;19905;53.370;-6.314;2023-07-22T05:15:42;100268.66;;;13.05;100.00
29935;BME280;19905;53.370;-6.314;2023-07-22T05:18:10;100261.69;;;13.04;100.00
29935;BME280;19905;53.370;-6.314;2023-07-22T05:20:39;100267.84;;;13.04;100.00
29935;BME280;19905;53.370;-6.314;2023-07-22T05:23:07;100253.47;;;13.07;100.00
29935;BME280;19905;53.370;-6.314;2023-07-22T05:25:36;100264.06;;;13.07;100.00
29935;BME280;19905;53.370;-6.314;2023-07-22T05:28:04;100257.78;;;13.08;100.00
29935;BME280;19905;53.370;-6.314;2023-07-22T05:30:34;100255.53;;;13.13;100.00
29935;BME280;19905;53.370;-6.314;2023-07-22T05:33:03;100259.00;;;13.13;100.00
29935;BME280;19905;53.370;-6.314;2023-07-22T05:35:31;100253.59;;;13.15;100.00
29935;BME280;19905;53.370;-6.314;2023-07-22T05:38:00;100247.97;;;13.18;100.00
29935;BME280;19905;53.370;-6.314;2023-07-22T05:40:31;100250.50;;;13.19;100.00
29935;BME280;19905;53.370;-6.314;2023-07-22T05:42:59;100248.41;;;13.23;100.00
29935;BME280;19905;53.370;-6.314;2023-07-22T05:45:28;100256.06;;;13.26;100.00
29935;BME280;19905;53.370;-6.314;2023-07-22T05:47:58;100245.03;;;13.31;100.00
29935;BME280;19905;53.370;-6.314;2023-07-22T05:50:27;100241.97;;;13.26;100.00
29935;BME280;19905;53.370;-6.314;2023-07-22T05:52:56;100231.09;;;13.29;100.00
29935;BME280;19905;53.370;-6.314;2023-07-22T05:55:24;100225.63;;;13.30;100.00
29935;BME280;19905;53.370;-6.314;2023-07-22T05:57:53;100222.00;;;13.31;100.00
29935;BME280;19905;53.370;-6.314;2023-07-22T06:00:22;100224.34;;;13.34;100.00
29935;BME280;19905;53.370;-6.314;2023-07-22T06:02:51;100222.53;;;13.35;100.00
29935;BME280;19905;53.370;-6.314;2023-07-22T06:05:21;100219.59;;;13.38;100.00
29935;BME280;19905;53.370;-6.314;2023-07-22T06:07:49;100213.16;;;13.40;100.00
29935;BME280;19905;53.370;-6.314;2023-07-22T06:10:18;100214.53;;;13.44;100.00
29935;BME280;19905;53.370;-6.314;2023-07-22T06:12:47;100219.69;;;13.46;100.00
29935;BME280;19905;53.370;-6.314;2023-07-22T06:15:15;100221.88;;;13.51;100.00
29935;BME280;19905;53.370;-6.314;2023-07-22T06:17:44;100212.97;;;13.52;100.00
29935;BME280;19905;53.370;-6.314;2023-07-22T06:20:13;100215.47;;;13.53;100.00
29935;BME280;19905;53.370;-6.314;2023-07-22T06:22:43;100220.16;;;13.59;100.00
29935;BME280;19905;53.370;-6.314;2023-07-22T06:25:12;100219.03;;;13.62;100.00
29935;BME280;19905;53.370;-6.314;2023-07-22T06:27:40;100209.94;;;13.64;100.00
29935;BME280;19905;53.370;-6.314;2023-07-22T06:30:10;100212.97;;;13.69;100.00
29935;BME280;19905;53.370;-6.314;2023-07-22T06:32:39;100210.72;;;13.75;100.00
29935;BME280;19905;53.370;-6.314;2023-07-22T06:35:08;100209.03;;;13.73;100.00
29935;BME280;19905;53.370;-6.314;2023-07-22T06:37:37;100203.81;;;13.82;100.00
29935;BME280;19905;53.370;-6.314;2023-07-22T06:40:08;100211.16;;;13.88;100.00
29935;BME280;19905;53.370;-6.314;2023-07-22T06:42:37;100203.75;;;13.91;100.00
29935;BME280;19905;53.370;-6.314;2023-07-22T06:45:06;100206.94;;;13.95;100.00
29935;BME280;19905;53.370;-6.314;2023-07-22T06:47:35;100203.53;;;14.03;100.00
29935;BME280;19905;53.370;-6.314;2023-07-22T06:50:05;100202.25;;;14.07;100.00
29935;BME280;19905;53.370;-6.314;2023-07-22T06:52:33;100207.63;;;14.15;100.00
29935;BME280;19905;53.370;-6.314;2023-07-22T06:55:02;100205.66;;;14.17;100.00
29935;BME280;19905;53.370;-6.314;2023-07-22T06:57:32;100199.19;;;14.19;100.00
29935;BME280;19905;53.370;-6.314;2023-07-22T07:00:01;100193.88;;;14.19;100.00
29935;BME280;19905;53.370;-6.314;2023-07-22T07:02:30;100193.13;;;14.27;100.00
29935;BME280;19905;53.370;-6.314;2023-07-22T07:04:59;100192.13;;;14.28;100.00
29935;BME280;19905;53.370;-6.314;2023-07-22T07:07:28;100190.28;;;14.29;100.00
29935;BME280;19905;53.370;-6.314;2023-07-22T07:09:56;100190.38;;;14.37;100.00
29935;BME280;19905;53.370;-6.314;2023-07-22T07:12:25;100191.72;;;14.41;100.00
29935;BME280;19905;53.370;-6.314;2023-07-22T07:14:55;100188.91;;;14.42;100.00
29935;BME280;19905;53.370;-6.314;2023-07-22T07:17:24;100181.63;;;14.44;100.00
29935;BME280;19905;53.370;-6.314;2023-07-22T07:19:52;100191.66;;;14.51;100.00
29935;BME280;19905;53.370;-6.314;2023-07-22T07:22:21;100184.38;;;14.53;100.00
29935;BME280;19905;53.370;-6.314;2023-07-22T07:24:49;100178.75;;;14.56;100.00
29935;BME280;19905;53.370;-6.314;2023-07-22T07:27:18;100178.16;;;14.70;100.00
29935;BME280;19905;53.370;-6.314;2023-07-22T07:29:46;100178.44;;;14.59;100.00
29935;BME280;19905;53.370;-6.314;2023-07-22T07:32:22;100170.16;;;14.62;100.00
29935;BME280;19905;53.370;-6.314;2023-07-22T07:34:51;100168.84;;;14.66;100.00
29935;BME280;19905;53.370;-6.314;2023-07-22T07:37:20;100167.22;;;14.73;100.00
29935;BME280;19905;53.370;-6.314;2023-07-22T07:39:50;100174.22;;;14.74;100.00
29935;BME280;19905;53.370;-6.314;2023-07-22T07:42:19;100162.28;;;14.78;100.00
29935;BME280;19905;53.370;-6.314;2023-07-22T07:44:48;100171.44;;;14.84;100.00
29935;BME280;19905;53.370;-6.314;2023-07-22T07:47:16;100162.69;;;14.91;100.00
29935;BME280;19905;53.370;-6.314;2023-07-22T07:49:46;100157.41;;;14.99;100.00
29935;BME280;19905;53.370;-6.314;2023-07-22T07:52:16;100153.09;;;15.07;100.00
29935;BME280;19905;53.370;-6.314;2023-07-22T07:54:44;100148.47;;;15.09;100.00
29935;BME280;19905;53.370;-6.314;2023-07-22T07:57:13;100149.66;;;15.14;100.00
29935;BME280;19905;53.370;-6.314;2023-07-22T07:59:41;100149.47;;;15.16;100.00
29935;BME280;19905;53.370;-6.314;2023-07-22T08:02:10;100145.84;;;15.17;100.00
29935;BME280;19905;53.370;-6.314;2023-07-22T08:04:38;100136.34;;;15.14;100.00
29935;BME280;19905;53.370;-6.314;2023-07-22T08:07:08;100135.69;;;15.20;100.00
29935;BME280;19905;53.370;-6.314;2023-07-22T08:09:37;100128.06;;;15.25;100.00
29935;BME280;19905;53.370;-6.314;2023-07-22T08:12:06;100127.56;;;15.22;100.00
29935;BME280;19905;53.370;-6.314;2023-07-22T08:14:35;100123.09;;;15.31;100.00
29935;BME280;19905;53.370;-6.314;2023-07-22T08:17:03;100116.50;;;15.51;100.00
29935;BME280;19905;53.370;-6.314;2023-07-22T08:19:32;100114.97;;;15.48;100.00
29935;BME280;19905;53.370;-6.314;2023-07-22T08:22:00;100103.34;;;15.58;100.00
29935;BME280;19905;53.370;-6.314;2023-07-22T08:24:30;100096.91;;;15.68;100.00
29935;BME280;19905;53.370;-6.314;2023-07-22T08:26:59;100095.94;;;15.78;100.00
29935;BME280;19905;53.370;-6.314;2023-07-22T08:29:28;100091.28;;;15.71;100.00
29935;BME280;19905;53.370;-6.314;2023-07-22T08:31:56;100087.75;;;15.79;100.00
29935;BME280;19905;53.370;-6.314;2023-07-22T08:34:25;100082.09;;;15.74;100.00
29935;BME280;19905;53.370;-6.314;2023-07-22T08:36:53;100084.94;;;15.72;100.00
29935;BME280;19905;53.370;-6.314;2023-07-22T08:39:22;100078.63;;;15.82;100.00
29935;BME280;19905;53.370;-6.314;2023-07-22T08:41:52;100074.44;;;15.87;100.00
29935;BME280;19905;53.370;-6.314;2023-07-22T08:44:25;100068.28;;;15.79;100.00
29935;BME280;19905;53.370;-6.314;2023-07-22T08:47:02;100065.13;;;15.83;100.00
29935;BME280;19905;53.370;-6.314;2023-07-22T08:49:32;100064.81;;;15.86;100.00
29935;BME280;19905;53.370;-6.314;2023-07-22T08:52:02;100049.97;;;16.00;100.00
29935;BME280;19905;53.370;-6.314;2023-07-22T08:54:31;100052.13;;;16.13;100.00
29935;BME280;19905;53.370;-6.314;2023-07-22T08:57:03;100052.44;;;16.18;100.00
29935;BME280;19905;53.370;-6.314;2023-07-22T08:59:32;100051.97;;;16.06;100.00
29935;BME280;19905;53.370;-6.314;2023-07-22T09:02:03;100052.97;;;16.13;100.00
29935;BME280;19905;53.370;-6.314;2023-07-22T09:04:32;100049.63;;;16.03;100.00
29935;BME280;19905;53.370;-6.314;2023-07-22T09:07:00;100049.28;;;16.06;100.00
29935;BME280;19905;53.370;-6.314;2023-07-22T09:09:30;100044.78;;;16.15;100.00
29935;BME280;19905;53.370;-6.314;2023-07-22T09:12:00;100036.28;;;16.27;100.00
29935;BME280;19905;53.370;-6.314;2023-07-22T09:14:30;100035.03;;;16.46;100.00
29935;BME280;19905;53.370;-6.314;2023-07-22T09:17:04;100029.72;;;16.38;100.00
29935;BME280;19905;53.370;-6.314;2023-07-22T09:19:33;100028.91;;;16.30;100.00
29935;BME280;19905;53.370;-6.314;2023-07-22T09:22:01;100023.91;;;16.35;100.00
29935;BME280;19905;53.370;-6.314;2023-07-22T09:24:30;100016.59;;;16.37;100.00
29935;BME280;19905;53.370;-6.314;2023-07-22T09:26:58;100027.06;;;16.46;100.00
29935;BME280;19905;53.370;-6.314;2023-07-22T09:29:36;100015.88;;;16.51;100.00
29935;BME280;19905;53.370;-6.314;2023-07-22T09:32:07;100016.41;;;16.38;100.00
29935;BME280;19905;53.370;-6.314;2023-07-22T09:34:35;100014.94;;;16.36;100.00
29935;BME280;19905;53.370;-6.314;2023-07-22T09:37:04;100005.41;;;16.41;100.00
29935;BME280;19905;53.370;-6.314;2023-07-22T09:39:34;100002.84;;;16.56;100.00
29935;BME280;19905;53.370;-6.314;2023-07-22T09:42:04;100003.94;;;16.70;100.00
29935;BME280;19905;53.370;-6.314;2023-07-22T09:44:34;99997.78;;;16.69;100.00
29935;BME280;19905;53.370;-6.314;2023-07-22T09:47:08;100000.28;;;16.79;100.00
29935;BME280;19905;53.370;-6.314;2023-07-22T09:49:40;100000.28;;;16.79;100.00
29935;BME280;19905;53.370;-6.314;2023-07-22T09:52:10;99996.09;;;16.76;100.00
29935;BME280;19905;53.370;-6.314;2023-07-22T09:54:49;99996.22;;;16.91;100.00
29935;BME280;19905;53.370;-6.314;2023-07-22T09:57:18;99998.59;;;16.86;100.00
29935;BME280;19905;53.370;-6.314;2023-07-22T09:59:51;99986.94;;;16.71;100.00
29935;BME280;19905;53.370;-6.314;2023-07-22T10:02:22;99986.28;;;16.77;100.00
29935;BME280;19905;53.370;-6.314;2023-07-22T10:04:52;99994.94;;;16.71;100.00
29935;BME280;19905;53.370;-6.314;2023-07-22T10:07:21;99994.16;;;16.62;100.00
29935;BME280;19905;53.370;-6.314;2023-07-22T10:09:54;99979.16;;;16.61;100.00
29935;BME280;19905;53.370;-6.314;2023-07-22T10:12:23;99986.44;;;16.75;100.00
29935;BME280;19905;53.370;-6.314;2023-07-22T10:14:54;99981.81;;;16.61;100.00
29935;BME280;19905;53.370;-6.314;2023-07-22T10:17:24;99985.16;;;16.63;100.00
29935;BME280;19905;53.370;-6.314;2023-07-22T10:19:52;99980.66;;;16.64;100.00
29935;BME280;19905;53.370;-6.314;2023-07-22T10:22:22;99983.28;;;16.72;100.00
29935;BME280;19905;53.370;-6.314;2023-07-22T10:24:52;99973.47;;;16.72;100.00
29935;BME280;19905;53.370;-6.314;2023-07-22T10:27:24;99974.19;;;16.89;100.00
29935;BME280;19905;53.370;-6.314;2023-07-22T10:29:59;99971.44;;;17.06;100.00
29935;BME280;19905;53.370;-6.314;2023-07-22T10:32:32;99957.81;;;17.23;100.00
29935;BME280;19905;53.370;-6.314;2023-07-22T10:35:02;99955.97;;;17.24;100.00
29935;BME280;19905;53.370;-6.314;2023-07-22T10:37:33;99956.13;;;17.22;100.00
29935;BME280;19905;53.370;-6.314;2023-07-22T10:40:26;99958.91;;;17.29;100.00
29935;BME280;19905;53.370;-6.314;2023-07-22T10:43:24;99953.00;;;17.19;100.00
29935;BME280;19905;53.370;-6.314;2023-07-22T10:46:44;99941.91;;;17.30;100.00
29935;BME280;19905;53.370;-6.314;2023-07-22T10:57:50;99942.03;;;17.14;100.00
29935;BME280;19905;53.370;-6.314;2023-07-22T11:16:56;99955.38;;;17.37;100.00
29935;BME280;19905;53.370;-6.314;2023-07-22T11:20:06;99945.25;;;17.47;100.00
29935;BME280;19905;53.370;-6.314;2023-07-22T11:27:22;99918.34;;;18.67;100.00
29935;BME280;19905;53.370;-6.314;2023-07-22T11:34:03;99875.00;;;19.42;100.00
29935;BME280;19905;53.370;-6.314;2023-07-22T11:41:09;99885.50;;;18.37;100.00
29935;BME280;19905;53.370;-6.314;2023-07-22T11:44:05;99878.94;;;18.39;100.00
29935;BME280;19905;53.370;-6.314;2023-07-22T11:46:52;99878.63;;;18.13;100.00
29935;BME280;19905;53.370;-6.314;2023-07-22T11:49:49;99884.25;;;18.18;100.00
29935;BME280;19905;53.370;-6.314;2023-07-22T11:56:25;99873.97;;;18.36;100.00
29935;BME280;19905;53.370;-6.314;2023-07-22T11:59:36;99854.94;;;18.46;100.00
29935;BME280;19905;53.370;-6.314;2023-07-22T12:03:22;99843.78;;;19.00;100.00
29935;BME280;19905;53.370;-6.314;2023-07-22T12:13:15;99821.63;;;19.41;100.00
29935;BME280;19905;53.370;-6.314;2023-07-22T12:16:24;99815.06;;;19.43;100.00
29935;BME280;19905;53.370;-6.314;2023-07-22T12:26:06;99789.13;;;19.50;100.00
29935;BME280;19905;53.370;-6.314;2023-07-22T12:40:19;99786.56;;;19.64;100.00
29935;BME280;19905;53.370;-6.314;2023-07-22T12:44:11;99806.72;;;19.25;100.00
29935;BME280;19905;53.370;-6.314;2023-07-22T12:47:41;99802.19;;;18.97;100.00
29935;BME280;19905;53.370;-6.314;2023-07-22T12:50:55;99819.44;;;18.73;100.00
29935;BME280;19905;53.370;-6.314;2023-07-22T12:54:15;99822.56;;;18.56;100.00
29935;BME280;19905;53.370;-6.314;2023-07-22T12:57:40;99825.81;;;18.51;100.00
29935;BME280;19905;53.370;-6.314;2023-07-22T13:00:28;99820.97;;;18.61;100.00
29935;BME280;19905;53.370;-6.314;2023-07-22T13:03:05;99823.91;;;18.66;100.00
29935;BME280;19905;53.370;-6.314;2023-07-22T13:05:37;99826.72;;;18.79;100.00
29935;BME280;19905;53.370;-6.314;2023-07-22T13:08:15;99804.03;;;18.97;100.00
29935;BME280;19905;53.370;-6.314;2023-07-22T13:10:51;99790.41;;;19.54;100.00
29935;BME280;19905;53.370;-6.314;2023-07-22T13:13:42;99773.25;;;19.84;100.00
29935;BME280;19905;53.370;-6.314;2023-07-22T13:16:32;99753.06;;;19.88;100.00
29935;BME280;19905;53.370;-6.314;2023-07-22T13:19:22;99760.44;;;19.72;100.00
29935;BME280;19905;53.370;-6.314;2023-07-22T13:22:25;99760.91;;;19.13;100.00
29935;BME280;19905;53.370;-6.314;2023-07-22T13:25:18;99754.41;;;18.73;100.00
29935;BME280;19905;53.370;-6.314;2023-07-22T13:28:21;99765.84;;;18.60;100.00
29935;BME280;19905;53.370;-6.314;2023-07-22T13:31:22;99772.56;;;18.56;100.00
29935;BME280;19905;53.370;-6.314;2023-07-22T13:34:01;99777.09;;;18.56;100.00
29935;BME280;19905;53.370;-6.314;2023-07-22T13:36:44;99772.56;;;18.35;100.00
29935;BME280;19905;53.370;-6.314;2023-07-22T13:39:23;99780.53;;;18.49;100.00
29935;BME280;19905;53.370;-6.314;2023-07-22T13:42:34;99775.56;;;18.89;100.00
29935;BME280;19905;53.370;-6.314;2023-07-22T13:45:17;99747.00;;;19.31;100.00
29935;BME280;19905;53.370;-6.314;2023-07-22T13:47:52;99731.84;;;19.51;100.00
29935;BME280;19905;53.370;-6.314;2023-07-22T13:50:22;99719.78;;;19.62;100.00
29935;BME280;19905;53.370;-6.314;2023-07-22T13:53:08;99710.63;;;19.43;100.00
29935;BME280;19905;53.370;-6.314;2023-07-22T13:55:45;99721.34;;;19.43;100.00
29935;BME280;19905;53.370;-6.314;2023-07-22T13:58:32;99713.63;;;19.62;100.00
29935;BME280;19905;53.370;-6.314;2023-07-22T14:01:14;99699.00;;;19.71;100.00
29935;BME280;19905;53.370;-6.314;2023-07-22T14:04:01;99675.19;;;20.02;100.00
29935;BME280;19905;53.370;-6.314;2023-07-22T14:06:39;99656.00;;;20.45;100.00
29935;BME280;19905;53.370;-6.314;2023-07-22T14:09:55;99653.13;;;20.47;100.00
29935;BME280;19905;53.370;-6.314;2023-07-22T14:12:40;99652.91;;;20.22;100.00
29935;BME280;19905;53.370;-6.314;2023-07-22T14:15:58;99643.38;;;19.93;100.00
29935;BME280;19905;53.370;-6.314;2023-07-22T14:33:34;99648.44;;;19.54;100.00
29935;BME280;19905;53.370;-6.314;2023-07-22T14:37:32;99653.03;;;19.67;100.00
29935;BME280;19905;53.370;-6.314;2023-07-22T15:47:46;99564.66;;;19.80;100.00
29935;BME280;19905;53.370;-6.314;2023-07-22T15:55:08;99559.22;;;19.54;100.00
29935;BME280;19905;53.370;-6.314;2023-07-22T16:06:17;99566.53;;;19.19;100.00
29935;BME280;19905;53.370;-6.314;2023-07-22T16:09:09;99567.72;;;19.03;100.00
29935;BME280;19905;53.370;-6.314;2023-07-22T16:12:51;99573.03;;;18.96;100.00
29935;BME280;19905;53.370;-6.314;2023-07-22T16:23:16;99585.53;;;18.54;100.00
29935;BME280;19905;53.370;-6.314;2023-07-22T16:25:52;99596.34;;;18.40;100.00
29935;BME280;19905;53.370;-6.314;2023-07-22T16:28:37;99600.44;;;18.36;100.00
29935;BME280;19905;53.370;-6.314;2023-07-22T16:31:38;99602.38;;;18.20;100.00
29935;BME280;19905;53.370;-6.314;2023-07-22T16:34:35;99609.72;;;18.12;100.00
29935;BME280;19905;53.370;-6.314;2023-07-22T16:37:04;99605.16;;;18.06;100.00
29935;BME280;19905;53.370;-6.314;2023-07-22T16:39:34;99606.16;;;18.04;100.00